createdAt,value
2022-11-26T00:04:18.623Z,80.12
2022-11-26T00:09:25.387Z,80.09
2022-11-26T00:14:28.835Z,80.24
2022-11-26T00:19:32.143Z,80.21
2022-11-26T00:24:35.770Z,80.36
2022-11-26T00:29:39.477Z,80.02
2022-11-26T00:34:43.198Z,80.12
2022-11-26T00:39:47.532Z,80.07
2022-11-26T00:44:50.949Z,80.03
2022-11-26T00:49:54.462Z,80.26
2022-11-26T00:54:57.975Z,80.59
2022-11-26T01:00:01.500Z,80.49
2022-11-26T01:05:05.419Z,80.40
2022-11-26T01:10:16.204Z,80.54
2022-11-26T01:15:22.279Z,80.53
2022-11-26T01:20:29.542Z,80.60
2022-11-26T01:25:33.104Z,80.54
2022-11-26T01:30:36.715Z,80.55
2022-11-26T01:35:40.232Z,80.60
2022-11-26T01:40:56.757Z,80.70
2022-11-26T01:46:00.313Z,80.64
2022-11-26T01:51:08.837Z,80.69
2022-11-26T01:56:20.156Z,80.68
2022-11-26T02:01:23.919Z,80.66
2022-11-26T02:06:32.635Z,80.47
2022-11-26T02:11:36.790Z,80.36
2022-11-26T02:17:01.130Z,80.55
2022-11-26T02:22:29.593Z,80.55
2022-11-26T02:27:58.710Z,80.45
2022-11-26T02:33:15.128Z,80.31
2022-11-26T02:38:25.083Z,80.49
2022-11-26T02:43:29.334Z,80.48
2022-11-26T02:48:37.247Z,80.53
2022-11-26T02:53:42.706Z,80.67
2022-11-26T02:58:46.529Z,80.81
2022-11-26T03:03:53.353Z,80.68
2022-11-26T03:08:57.143Z,80.61
2022-11-26T03:14:00.661Z,80.92
2022-11-26T03:19:04.174Z,80.70
2022-11-26T03:24:08.001Z,80.71
2022-11-26T03:29:11.311Z,80.70
2022-11-26T03:34:15.028Z,80.79
2022-11-26T03:39:18.749Z,81.00
2022-11-26T03:44:22.265Z,80.66
2022-11-26T03:49:25.677Z,80.71
2022-11-26T03:54:29.500Z,80.97
2022-11-26T03:59:32.914Z,81.00
2022-11-26T04:04:36.652Z,80.82
2022-11-26T04:09:40.459Z,80.86
2022-11-26T04:14:43.912Z,80.88
2022-11-26T04:19:47.388Z,80.97
2022-11-26T04:24:50.901Z,80.93
2022-11-26T04:29:54.521Z,81.07
2022-11-26T04:34:58.035Z,81.09
2022-11-26T04:40:01.858Z,80.98
2022-11-26T04:45:06.089Z,81.25
2022-11-26T04:50:10.530Z,81.09
2022-11-26T04:55:14.045Z,81.04
2022-11-26T05:00:18.505Z,81.27
2022-11-26T05:05:21.893Z,81.32
2022-11-26T05:10:26.025Z,81.33
2022-11-26T05:15:29.538Z,81.39
2022-11-26T05:20:33.056Z,81.30
2022-11-26T05:25:36.671Z,81.56
2022-11-26T05:30:40.084Z,81.51
2022-11-26T05:35:43.600Z,81.46
2022-11-26T05:40:49.674Z,81.39
2022-11-26T05:45:53.231Z,81.44
2022-11-26T05:51:01.112Z,81.63
2022-11-26T05:56:04.933Z,81.80
2022-11-26T06:01:09.573Z,82.08
2022-11-26T06:06:12.900Z,81.80
2022-11-26T06:11:16.448Z,81.74
2022-11-26T06:16:19.938Z,81.50
2022-11-26T06:21:23.367Z,81.50
2022-11-26T06:26:27.189Z,81.66
2022-11-26T06:31:30.636Z,81.86
2022-11-26T06:36:34.055Z,81.44
2022-11-26T06:41:37.468Z,81.84
2022-11-26T06:46:40.818Z,81.57
2022-11-26T06:51:44.089Z,81.35
2022-11-26T06:56:47.809Z,81.36
2022-11-26T07:01:51.924Z,81.36
2022-11-26T07:06:55.438Z,81.42
2022-11-26T07:11:59.069Z,81.48
2022-11-26T07:17:02.706Z,81.54
2022-11-26T07:22:06.500Z,81.40
2022-11-26T07:27:09.948Z,81.66
2022-11-26T07:32:13.707Z,81.82
2022-11-26T07:37:17.470Z,81.60
2022-11-26T07:42:20.808Z,81.69
2022-11-26T07:47:24.301Z,81.67
2022-11-26T07:52:27.677Z,81.63
2022-11-26T07:57:31.079Z,81.44
2022-11-26T08:02:34.506Z,81.43
2022-11-26T08:07:37.910Z,81.80
2022-11-26T08:12:41.254Z,81.83
2022-11-26T08:17:44.605Z,81.64
2022-11-26T08:22:48.027Z,81.76
2022-11-26T08:27:51.371Z,81.65
2022-11-26T08:32:54.625Z,81.54
2022-11-26T08:37:58.057Z,81.41
2022-11-26T08:43:01.415Z,80.86
2022-11-26T08:48:04.968Z,80.93
2022-11-26T08:53:08.296Z,80.75
2022-11-26T08:58:11.670Z,81.04
2022-11-26T09:03:15.035Z,80.84
2022-11-26T09:08:18.374Z,81.04
2022-11-26T09:13:22.379Z,81.13
2022-11-26T09:18:25.695Z,81.40
2022-11-26T09:23:29.292Z,80.65
2022-11-26T09:28:32.626Z,80.35
2022-11-26T09:33:35.951Z,80.13
2022-11-26T09:38:40.030Z,80.68
2022-11-26T09:44:23.336Z,80.90
2022-11-26T09:49:30.478Z,80.85
2022-11-26T09:54:34.380Z,80.60
2022-11-26T09:59:39.315Z,80.69
2022-11-26T10:04:42.948Z,80.59
2022-11-26T10:10:07.070Z,80.69
2022-11-26T10:15:25.113Z,80.49
2022-11-26T10:20:37.731Z,80.39
2022-11-26T10:25:48.617Z,80.28
2022-11-26T10:30:58.201Z,80.43
2022-11-26T10:36:04.073Z,80.58
2022-11-26T10:41:07.354Z,80.59
2022-11-26T10:46:34.186Z,80.54
2022-11-26T10:51:37.927Z,80.05
2022-11-26T10:56:47.034Z,80.07
2022-11-26T11:01:54.316Z,80.30
2022-11-26T11:06:59.496Z,80.17
2022-11-26T11:12:08.878Z,80.23
2022-11-26T11:17:40.080Z,80.00
2022-11-26T11:22:46.029Z,80.22
2022-11-26T11:27:50.047Z,80.25
2022-11-26T11:32:57.719Z,80.54
2022-11-26T11:38:01.337Z,80.21
2022-11-26T11:43:07.906Z,80.18
2022-11-26T11:48:48.948Z,80.18
2022-11-26T11:54:20.710Z,80.10
2022-11-26T11:59:47.823Z,80.00
2022-11-26T12:05:23.101Z,80.09
2022-11-26T12:10:52.673Z,80.14
2022-11-26T12:16:03.328Z,80.33
2022-11-26T12:21:16.426Z,80.41
2022-11-26T12:26:37.357Z,80.11
2022-11-26T12:31:54.128Z,80.25
2022-11-26T12:37:06.871Z,80.06
2022-11-26T12:43:10.175Z,80.13
2022-11-26T12:48:41.470Z,79.90
2022-11-26T12:54:34.842Z,80.05
2022-11-26T12:59:48.970Z,80.00
2022-11-26T13:04:54.758Z,80.03
2022-11-26T13:10:54.760Z,80.25
2022-11-26T13:26:25.701Z,80.13
2022-11-26T13:32:12.736Z,80.04
2022-11-26T13:37:36.946Z,80.14
2022-11-26T13:42:55.173Z,80.22
2022-11-26T13:48:08.746Z,80.08
2022-11-26T13:53:26.958Z,79.95
2022-11-26T13:58:35.442Z,80.19
2022-11-26T14:03:49.503Z,80.14
2022-11-26T14:08:54.161Z,80.21
2022-11-26T14:14:25.615Z,80.19
2022-11-26T14:19:49.234Z,80.27
2022-11-26T14:24:53.740Z,80.36
2022-11-26T14:30:09.299Z,80.44
2022-11-26T14:35:32.460Z,80.51
2022-11-26T14:40:39.012Z,80.56
2022-11-26T14:45:47.735Z,80.53
2022-11-26T14:50:52.689Z,80.57
2022-11-26T14:55:57.360Z,80.60
2022-11-26T15:01:08.629Z,80.43
2022-11-26T15:06:42.877Z,80.48
2022-11-26T15:11:57.342Z,80.38
2022-11-26T15:17:05.674Z,80.43
2022-11-26T15:22:42.869Z,80.36
2022-11-26T15:27:52.222Z,80.30
2022-11-26T15:33:14.682Z,80.36
2022-11-26T15:38:20.688Z,80.31
2022-11-26T15:43:49.464Z,80.53
2022-11-26T15:48:57.316Z,80.55
2022-11-26T15:54:02.845Z,80.71
2022-11-26T15:59:14.966Z,80.95
2022-11-26T16:04:34.041Z,81.09
2022-11-26T16:09:37.249Z,81.20
2022-11-26T16:14:40.903Z,81.24
2022-11-26T16:19:57.806Z,81.20
2022-11-26T16:25:19.641Z,81.27
2022-11-26T16:30:22.954Z,81.15
2022-11-26T16:35:44.620Z,81.43
2022-11-26T16:40:50.057Z,81.67
2022-11-26T16:45:54.768Z,81.65
2022-11-26T16:50:58.112Z,81.74
2022-11-26T16:56:02.138Z,81.76
2022-11-26T17:01:05.559Z,81.76
2022-11-26T17:06:35.078Z,81.45
2022-11-26T17:11:38.488Z,81.69
2022-11-26T17:16:41.992Z,81.64
2022-11-26T17:21:45.520Z,81.73
2022-11-26T17:26:48.937Z,81.74
2022-11-26T17:31:52.350Z,81.69
2022-11-26T17:37:00.060Z,81.72
2022-11-26T17:42:03.677Z,81.82
2022-11-26T17:47:17.313Z,81.83
2022-11-26T17:52:23.204Z,81.91
2022-11-26T17:57:28.564Z,82.01
2022-11-26T18:02:31.930Z,82.00
2022-11-26T18:07:36.783Z,82.12
2022-11-26T18:12:41.233Z,82.06
2022-11-26T18:17:51.122Z,82.23
2022-11-26T18:22:56.566Z,82.46
2022-11-26T18:27:59.892Z,82.53
2022-11-26T18:33:03.409Z,82.54
2022-11-26T18:38:09.896Z,82.82
2022-11-26T18:43:13.306Z,83.06
2022-11-26T18:48:16.722Z,83.24
2022-11-26T18:53:20.032Z,83.19
2022-11-26T18:58:24.573Z,83.21
2022-11-26T19:03:28.701Z,83.32
2022-11-26T19:08:32.742Z,83.41
2022-11-26T19:13:36.863Z,83.37
2022-11-26T19:18:41.570Z,83.23
2022-11-26T19:23:45.017Z,83.34
2022-11-26T19:28:48.934Z,83.42
2022-11-26T19:33:54.613Z,83.55
2022-11-26T19:38:59.555Z,83.64
2022-11-26T19:44:07.307Z,83.81
2022-11-26T19:49:12.736Z,83.64
2022-11-26T19:54:16.143Z,83.71
2022-11-26T19:59:20.067Z,83.88
2022-11-26T20:04:24.039Z,83.86
2022-11-26T20:09:27.406Z,83.68
2022-11-26T20:14:31.025Z,83.78
2022-11-26T20:19:34.348Z,83.71
2022-11-26T20:24:37.852Z,83.90
2022-11-26T20:29:41.434Z,83.85
2022-11-26T20:34:45.599Z,83.79
2022-11-26T20:39:49.024Z,83.90
2022-11-26T20:44:52.425Z,83.90
2022-11-26T20:49:55.942Z,83.99
2022-11-26T20:54:59.360Z,84.03
2022-11-26T21:00:07.455Z,83.91
2022-11-26T21:05:10.686Z,83.91
2022-11-26T21:10:16.148Z,84.11
2022-11-26T21:15:19.559Z,84.01
2022-11-26T21:20:24.362Z,83.96
2022-11-26T21:25:27.716Z,83.86
2022-11-26T21:30:31.071Z,84.26
2022-11-26T21:35:35.057Z,84.17
2022-11-26T21:40:38.468Z,84.23
2022-11-26T21:45:42.003Z,84.18
2022-11-26T21:50:45.397Z,84.21
2022-11-26T21:55:48.913Z,84.33
2022-11-26T22:00:52.428Z,84.47
2022-11-26T22:05:59.785Z,84.44
2022-11-26T22:11:11.506Z,84.50
2022-11-26T22:16:16.984Z,84.61
2022-11-26T22:21:41.278Z,84.79
2022-11-26T22:26:45.539Z,84.85
2022-11-26T22:31:50.560Z,84.95
2022-11-26T22:36:54.209Z,84.91
2022-11-26T22:41:58.207Z,84.80
2022-11-26T22:47:01.650Z,84.86
2022-11-26T22:52:05.063Z,84.99
2022-11-26T22:57:08.782Z,84.93
2022-11-26T23:02:12.140Z,85.14
2022-11-26T23:07:15.773Z,85.22
2022-11-26T23:12:19.329Z,85.29
2022-11-26T23:17:22.844Z,85.32
2022-11-26T23:22:26.360Z,85.46
2022-11-26T23:27:32.946Z,85.45
2022-11-26T23:32:36.667Z,85.60
2022-11-26T23:37:40.696Z,85.70
2022-11-26T23:42:44.109Z,85.57
2022-11-26T23:47:47.725Z,85.67
2022-11-26T23:52:51.552Z,85.67
2022-11-26T23:57:54.860Z,85.56
